Edge Hill, Georgia
Current Conditions -  °F | °C
As of 5:55 PM on Wednesday 26 Nov 2014 (Local Time) from KHQU Reporting Station
Clear Clear  
Wind Chill: 50°   Ceiling: Unl
Heat Index: 50°   Visibility: 10mi
Dew Point: 39°   Wind: 3mph
Humidity: 66%   Direction: 240°WSW
Pressure: 30.11"   Gusts: NA
Location:  33.2563°N, 82.5721°W
Report Text: KHQU 262255Z AUTO 24003KT 10SM CLR 10/04 A3011 RMK AO1 T01000038
Loading
Personal Weather Stations






























Interactive Weather Map New forecast layout! Learn more

10-Day Weather Forecast

Advertisements
Track Severe Weather on mobile